Albany, GA

10:09 AM EDT on August 21, 2014 (GMT -0400)
Moultrie Municipal | Change Station
CLOSE
Current Station
Airport
Location: Moultrie,
Elevation: 295 ft
Nearby Weather Stations
Active Advisory: Heat Advisory

Elev 295 ft 31.08 °N, 83.80 °W | Updated 14 minutes ago

Haze
Haze
81 °F
Feels Like 86 °F
N
0
Wind Variable Wind from North

Today
High -- | Low -- °F
--% Chance of Precip.
Yesterday
High -- | Low -- °F
Precip. -- in
7:05 AM 8:13 PM
Waning Crescent, 14% visible
Pressure 30.16 in
Visibility 2.5 miles
Clouds Clear
Heat Index 86 °F
Dew Point 75 °F
Humidity 84%
Rainfall 0.00 in
Snow Depth Not available.
UV 4 out of 12
Pollen 8.10 out of 12
Air Quality Not available.
Flu Activity Not available.
METAR KMGR 211355Z AUTO 00000KT 2 1/2SM HZ CLR 27/24 A3016 RMK AO2

More Conditions Fewer Conditions

Pressure 30.16 in
Visibility 2.5 miles
Clouds Clear
Heat Index 86 °F
Dew Point 75 °F
Humidity 84%
Rainfall 0.00 in
Snow Depth Not available.
UV 4 out of 12
Pollen 8.10 out of 12
Air Quality Not available.
Flu Activity Not available.
METAR KMGR 211355Z AUTO 00000KT 2 1/2SM HZ CLR 27/24 A3016 RMK AO2

More Conditions Fewer Conditions

10-Day Weather Forecast

Almanac

Astronomy

Aug. 21, 2014 Rise Set
Actual Time 7:05 AM EDT 8:13 PM EDT
Civil Twilight 6:40 AM EDT 8:38 PM EDT
Nautical Twilight 6:10 AM EDT 9:08 PM EDT
Astronomical Twilight 5:39 AM EDT 9:39 PM EDT
Moon 3:41 AM EDT 5:36 PM EDT
Length of Visible Light 13h 58m
Length of Day
13h 07m
Tomorrow will be 1m 45s shorter.
Waning Crescent, 14% of the Moon is Illuminated
Today
Waning Crescent
Aug 25
New
Sep 2
First Quarter
Sep 8
Full
Sep 15
Last Quarter

Today's Extremes

State Highs State Lows

Community

WunderPhotos

Upload Photos

1,745,925 photos uploaded!

WunderBlogs® & News

Nearby

Snow Depth

Station Depth Elevation
No new snow has been reported.

Earthquake Activity

City Distance Mag. Time & Date
No recent earthquake activity has been reported nearby.
Minimum magnitude displayed is 2.5.

Coastal Water Temperatures

Place Temperature
No Stations Reporting

Nearby Weather Stations